createdAt,value
2017-12-10T00:02:05.835Z,4.90
2017-12-10T00:04:41.558Z,9.00
2017-12-10T00:07:14.949Z,9.35
2017-12-10T00:09:44.086Z,6.85
2017-12-10T00:12:13.193Z,9.80
2017-12-10T00:14:42.245Z,8.95
2017-12-10T00:17:11.445Z,8.20
2017-12-10T00:19:47.991Z,5.25
2017-12-10T00:22:18.899Z,11.60
2017-12-10T00:24:47.971Z,5.80
2017-12-10T00:27:17.033Z,9.60
2017-12-10T00:29:46.855Z,11.00
2017-12-10T00:32:15.976Z,13.05
2017-12-10T00:34:44.983Z,7.50
2017-12-10T00:37:14.054Z,10.70
2017-12-10T00:39:43.085Z,10.02
2017-12-10T00:42:15.849Z,9.38
2017-12-10T00:44:53.453Z,9.20
2017-12-10T00:47:23.462Z,7.30
2017-12-10T00:49:52.575Z,8.45
2017-12-10T00:52:21.731Z,10.30
2017-12-10T00:54:50.833Z,9.57
2017-12-10T00:57:20.108Z,12.27
2017-12-10T00:59:49.296Z,6.82
2017-12-10T01:02:18.353Z,9.35
2017-12-10T01:04:47.460Z,10.95
2017-12-10T01:07:17.696Z,11.02
2017-12-10T01:09:47.494Z,10.57
2017-12-10T01:12:16.568Z,13.35
2017-12-10T01:14:45.692Z,11.60
2017-12-10T01:17:15.472Z,14.60
2017-12-10T01:19:45.310Z,13.68
2017-12-10T01:22:15.193Z,13.15
2017-12-10T01:24:44.314Z,14.70
2017-12-10T01:27:13.400Z,10.60
2017-12-10T01:29:42.434Z,12.48
2017-12-10T01:32:11.513Z,12.05
2017-12-10T01:34:41.354Z,14.38
2017-12-10T01:37:10.408Z,16.42
2017-12-10T01:39:40.237Z,13.88
2017-12-10T01:42:10.126Z,13.90
2017-12-10T01:44:39.235Z,14.25
2017-12-10T01:47:09.157Z,12.35
2017-12-10T01:49:39.120Z,9.63
2017-12-10T01:52:09.957Z,11.25
2017-12-10T01:54:39.080Z,12.98
2017-12-10T01:57:08.273Z,16.65
2017-12-10T01:59:37.440Z,12.02
2017-12-10T02:02:06.597Z,12.82
2017-12-10T02:04:36.446Z,11.77
2017-12-10T02:07:05.541Z,10.05
2017-12-10T02:09:34.785Z,10.80
2017-12-10T02:12:03.903Z,10.75
2017-12-10T02:14:34.349Z,12.63
2017-12-10T02:17:03.528Z,13.05
2017-12-10T02:19:33.444Z,10.38
2017-12-10T02:22:03.010Z,12.65
2017-12-10T02:24:32.155Z,9.10
2017-12-10T02:27:02.694Z,10.38
2017-12-10T02:29:31.885Z,12.98
2017-12-10T02:32:01.027Z,15.73
2017-12-10T02:34:30.177Z,9.45
2017-12-10T02:37:02.079Z,11.85
2017-12-10T02:39:32.036Z,9.02
2017-12-10T02:42:01.258Z,10.77
2017-12-10T02:44:30.364Z,10.93
2017-12-10T02:46:59.820Z,9.52
2017-12-10T02:49:29.745Z,9.10
2017-12-10T02:51:59.954Z,7.50
2017-12-10T02:54:29.076Z,9.63
2017-12-10T02:56:58.201Z,8.05
2017-12-10T02:59:27.305Z,8.98
2017-12-10T03:01:56.489Z,11.70
2017-12-10T03:04:26.281Z,8.45
2017-12-10T03:06:55.418Z,7.93
2017-12-10T03:09:24.518Z,9.60
2017-12-10T03:11:54.613Z,7.20
2017-12-10T03:14:23.747Z,7.97
2017-12-10T03:16:52.989Z,6.85
2017-12-10T03:19:22.134Z,7.00
2017-12-10T03:21:51.279Z,9.82
2017-12-10T03:24:20.430Z,8.27
2017-12-10T03:26:49.547Z,11.52
2017-12-10T03:29:19.401Z,9.07
2017-12-10T03:31:48.537Z,8.27
2017-12-10T03:34:17.628Z,6.45
2017-12-10T03:36:46.898Z,8.48
2017-12-10T03:39:16.019Z,12.93
2017-12-10T03:41:45.102Z,10.25
2017-12-10T03:44:14.206Z,8.90
2017-12-10T03:46:43.383Z,6.50
2017-12-10T03:49:12.501Z,7.78
2017-12-10T03:51:43.582Z,11.70
2017-12-10T03:54:12.740Z,7.57
2017-12-10T03:56:41.812Z,9.20
2017-12-10T03:59:10.860Z,9.82
2017-12-10T04:01:40.637Z,6.75
2017-12-10T04:04:09.788Z,6.60
2017-12-10T04:06:40.003Z,5.10
2017-12-10T04:09:09.422Z,8.10
2017-12-10T04:11:38.499Z,7.45
2017-12-10T04:14:07.669Z,5.80
2017-12-10T04:16:37.513Z,7.55
2017-12-10T04:19:06.573Z,8.25
2017-12-10T04:21:37.088Z,6.50
2017-12-10T04:24:06.146Z,7.82
2017-12-10T04:26:35.168Z,8.65
2017-12-10T04:29:04.496Z,7.68
2017-12-10T04:31:34.304Z,10.77
2017-12-10T04:34:05.020Z,8.13
2017-12-10T04:36:34.204Z,5.97
2017-12-10T04:39:03.286Z,11.07
2017-12-10T04:41:32.422Z,7.45
2017-12-10T04:44:02.240Z,9.00
2017-12-10T04:46:32.587Z,6.15
2017-12-10T04:49:01.737Z,5.75
2017-12-10T04:51:30.708Z,7.62
2017-12-10T04:53:59.777Z,6.65
2017-12-10T04:56:28.779Z,5.95
2017-12-10T04:58:57.834Z,14.13
2017-12-10T05:01:26.989Z,9.10
2017-12-10T05:03:55.936Z,6.25
2017-12-10T05:06:25.725Z,7.35
2017-12-10T05:08:54.822Z,5.47
2017-12-10T05:11:24.647Z,7.85
2017-12-10T05:13:54.453Z,7.90
2017-12-10T05:16:24.492Z,9.65
2017-12-10T05:18:53.581Z,6.97
2017-12-10T05:21:23.440Z,5.03
2017-12-10T05:23:52.515Z,5.12
2017-12-10T05:26:21.561Z,10.30
2017-12-10T05:28:51.306Z,5.10
2017-12-10T05:31:20.320Z,5.55
2017-12-10T05:33:49.387Z,7.43
2017-12-10T05:36:18.428Z,10.95
2017-12-10T05:38:47.555Z,4.97
2017-12-10T05:41:17.383Z,8.30
2017-12-10T05:43:47.244Z,7.35
2017-12-10T05:46:16.398Z,5.93
2017-12-10T05:48:45.426Z,6.90
2017-12-10T05:51:14.921Z,9.60
2017-12-10T05:53:44.018Z,7.82
2017-12-10T05:56:13.101Z,7.35
2017-12-10T05:58:42.236Z,8.38
2017-12-10T06:01:13.744Z,7.50
2017-12-10T06:03:47.595Z,9.70
2017-12-10T06:06:18.080Z,6.60
2017-12-10T06:08:47.220Z,9.60
2017-12-10T06:11:16.309Z,9.98
2017-12-10T06:13:45.353Z,10.70
2017-12-10T06:16:14.561Z,8.05
2017-12-10T06:18:43.726Z,7.22
2017-12-10T06:21:13.760Z,8.27
2017-12-10T06:23:42.810Z,6.20
2017-12-10T06:26:11.921Z,5.32
2017-12-10T06:28:41.532Z,9.32
2017-12-10T06:31:10.764Z,7.03
2017-12-10T06:33:39.855Z,7.32
2017-12-10T06:36:08.946Z,11.65
2017-12-10T06:38:37.976Z,6.30
2017-12-10T06:41:07.553Z,6.75
2017-12-10T06:43:37.541Z,6.12
2017-12-10T06:46:07.388Z,7.78
2017-12-10T06:48:36.457Z,6.05
2017-12-10T06:51:06.366Z,8.23
2017-12-10T06:53:36.486Z,8.35
2017-12-10T06:56:06.456Z,14.25
2017-12-10T06:58:35.585Z,7.00
2017-12-10T07:01:04.611Z,10.15
2017-12-10T07:03:33.752Z,6.60
2017-12-10T07:06:02.778Z,12.55
2017-12-10T07:08:32.649Z,8.30
2017-12-10T07:11:01.738Z,7.37
2017-12-10T07:13:30.769Z,8.07
2017-12-10T07:16:00.924Z,8.10
2017-12-10T07:18:36.978Z,8.55
2017-12-10T07:21:06.233Z,8.00
2017-12-10T07:23:35.260Z,6.28
2017-12-10T07:26:05.141Z,6.50
2017-12-10T07:28:34.251Z,10.30
2017-12-10T07:31:08.143Z,5.75
2017-12-10T07:33:38.551Z,7.25
2017-12-10T07:36:10.403Z,7.30
2017-12-10T07:38:45.590Z,10.60
2017-12-10T07:41:14.801Z,6.53
2017-12-10T07:43:48.836Z,5.35
2017-12-10T07:46:18.103Z,5.60
2017-12-10T07:48:47.316Z,5.47
2017-12-10T07:51:20.862Z,5.12
2017-12-10T07:53:51.954Z,6.40
2017-12-10T07:56:22.280Z,8.18
2017-12-10T07:58:51.843Z,10.20
2017-12-10T08:01:21.305Z,7.80
2017-12-10T08:03:53.478Z,5.75
2017-12-10T08:06:29.434Z,7.45
2017-12-10T08:09:01.574Z,7.90
2017-12-10T08:11:36.072Z,4.75
2017-12-10T08:20:34.482Z,8.18
2017-12-10T08:23:07.510Z,13.07
2017-12-10T08:25:39.289Z,5.97
2017-12-10T08:28:15.549Z,5.30
2017-12-10T08:30:49.271Z,5.60
2017-12-10T08:33:23.967Z,10.27
2017-12-10T08:35:57.351Z,8.13
2017-12-10T08:38:26.536Z,4.85
2017-12-10T08:41:17.534Z,5.00
2017-12-10T08:44:01.321Z,5.53
2017-12-10T08:46:31.359Z,8.55
2017-12-10T08:49:00.625Z,4.62
2017-12-10T08:51:29.706Z,5.18
2017-12-10T08:53:59.704Z,5.40
2017-12-10T08:56:29.069Z,4.78
2017-12-10T08:59:03.266Z,8.98
2017-12-10T09:01:44.409Z,6.00
2017-12-10T09:04:14.224Z,5.57
2017-12-10T09:06:53.767Z,6.18
2017-12-10T09:09:23.841Z,5.82
2017-12-10T09:11:53.266Z,9.50
2017-12-10T09:14:25.055Z,10.40
2017-12-10T09:16:54.760Z,5.55
2017-12-10T09:19:25.275Z,6.78
2017-12-10T09:21:55.324Z,5.53
2017-12-10T09:24:24.851Z,3.87
2017-12-10T09:26:54.338Z,6.53
2017-12-10T09:29:23.400Z,4.85
2017-12-10T09:31:53.282Z,6.30
2017-12-10T09:34:22.443Z,3.45
2017-12-10T09:36:51.654Z,3.12
2017-12-10T09:39:20.781Z,8.40
2017-12-10T09:41:49.914Z,6.28
2017-12-10T09:44:19.095Z,4.03
2017-12-10T09:46:48.965Z,3.62
2017-12-10T09:49:18.020Z,4.28
2017-12-10T09:51:50.993Z,6.50
2017-12-10T09:54:21.001Z,5.30
2017-12-10T09:56:50.185Z,4.85
2017-12-10T09:59:19.297Z,5.28
2017-12-10T10:01:49.108Z,4.80
2017-12-10T10:04:19.085Z,5.00
2017-12-10T10:06:48.230Z,6.20
2017-12-10T10:09:18.087Z,6.28
2017-12-10T10:11:47.330Z,5.15
2017-12-10T10:14:17.253Z,3.97
2017-12-10T10:16:47.625Z,4.72
2017-12-10T10:19:17.722Z,8.07
2017-12-10T10:21:46.888Z,8.85
2017-12-10T10:24:16.754Z,5.45
2017-12-10T10:26:45.899Z,3.65
2017-12-10T10:29:15.885Z,7.53
2017-12-10T10:31:45.124Z,6.30
2017-12-10T10:34:14.230Z,3.75
2017-12-10T10:36:43.510Z,7.35
2017-12-10T10:39:13.525Z,4.35
2017-12-10T10:41:43.542Z,3.90
2017-12-10T10:44:13.446Z,4.43
2017-12-10T10:46:42.609Z,4.60
2017-12-10T10:49:11.886Z,6.07
2017-12-10T10:51:41.195Z,4.37
2017-12-10T10:54:10.269Z,5.50
2017-12-10T10:56:39.424Z,4.60
2017-12-10T10:59:08.497Z,6.95
2017-12-10T11:01:38.269Z,5.78
2017-12-10T11:04:07.401Z,4.53
2017-12-10T11:06:36.623Z,4.80
2017-12-10T11:09:05.723Z,4.35
2017-12-10T11:11:34.851Z,5.97
2017-12-10T11:14:05.049Z,3.72
2017-12-10T11:16:37.640Z,8.07
2017-12-10T11:19:07.036Z,8.52
2017-12-10T11:21:36.990Z,2.80
2017-12-10T11:24:06.107Z,5.35
2017-12-10T11:26:35.926Z,6.87
2017-12-10T11:29:05.241Z,4.10
2017-12-10T11:31:34.476Z,7.22
2017-12-10T11:34:05.488Z,6.50
2017-12-10T11:36:36.146Z,6.57
2017-12-10T11:39:10.073Z,7.43
2017-12-10T11:41:39.829Z,5.75
2017-12-10T11:44:14.239Z,6.30
2017-12-10T11:46:43.364Z,8.45
2017-12-10T11:49:16.790Z,4.43
2017-12-10T11:51:47.745Z,8.23
2017-12-10T11:54:20.304Z,7.12
2017-12-10T11:56:49.686Z,4.78
2017-12-10T11:59:18.906Z,4.95
2017-12-10T12:01:48.151Z,8.65
2017-12-10T12:04:20.194Z,4.60
2017-12-10T12:06:49.506Z,5.28
2017-12-10T12:09:18.618Z,5.60
2017-12-10T12:11:50.206Z,7.15
2017-12-10T12:14:28.702Z,6.20
2017-12-10T12:17:00.923Z,5.10
2017-12-10T12:19:34.679Z,6.10
2017-12-10T12:22:06.950Z,6.45
2017-12-10T12:24:40.361Z,5.40
2017-12-10T12:27:13.831Z,6.28
2017-12-10T12:29:50.958Z,6.75
2017-12-10T12:32:23.459Z,8.23
2017-12-10T12:34:57.411Z,8.10
2017-12-10T12:37:32.718Z,9.77
2017-12-10T12:40:02.758Z,8.88
2017-12-10T12:42:34.967Z,11.32
2017-12-10T12:45:05.091Z,7.10
2017-12-10T12:47:34.341Z,9.98
2017-12-10T12:50:03.771Z,9.55
2017-12-10T12:52:35.536Z,6.75
2017-12-10T12:55:04.939Z,8.00
2017-12-10T12:57:34.759Z,6.25
2017-12-10T13:00:04.917Z,11.30
2017-12-10T13:02:35.700Z,6.28
2017-12-10T13:05:07.131Z,9.55
2017-12-10T13:07:37.420Z,7.45
2017-12-10T13:10:08.197Z,6.75
2017-12-10T13:12:39.772Z,8.45
2017-12-10T13:15:11.487Z,5.45
2017-12-10T13:17:44.010Z,6.45
2017-12-10T13:20:14.586Z,6.75
2017-12-10T13:22:43.869Z,8.80
2017-12-10T13:25:13.340Z,8.95
2017-12-10T13:27:42.608Z,12.20
2017-12-10T13:30:12.570Z,15.05
2017-12-10T13:32:45.217Z,8.65
2017-12-10T13:35:15.528Z,7.00
2017-12-10T13:37:48.451Z,9.32
2017-12-10T13:40:19.310Z,5.53
2017-12-10T13:42:48.436Z,6.72
2017-12-10T13:45:19.095Z,7.03
2017-12-10T13:47:49.848Z,8.65
2017-12-10T13:50:24.567Z,10.85
2017-12-10T13:52:55.707Z,9.38
2017-12-10T13:55:26.306Z,7.80
2017-12-10T13:57:56.186Z,6.43
2017-12-10T14:00:25.522Z,6.22
2017-12-10T14:02:55.996Z,6.78
2017-12-10T14:05:25.142Z,6.32
2017-12-10T14:07:57.258Z,7.78
2017-12-10T14:10:27.220Z,8.27
2017-12-10T14:13:01.863Z,7.37
2017-12-10T14:15:32.001Z,6.22
2017-12-10T14:18:01.162Z,6.57
2017-12-10T14:20:30.274Z,5.30
2017-12-10T14:23:00.309Z,5.50
2017-12-10T14:25:29.439Z,5.28
2017-12-10T14:27:59.048Z,6.95
2017-12-10T14:30:28.292Z,5.93
2017-12-10T14:32:57.483Z,6.43
2017-12-10T14:35:27.489Z,7.10
2017-12-10T14:37:59.519Z,6.45
2017-12-10T14:40:32.400Z,4.70
2017-12-10T14:43:04.075Z,5.85
2017-12-10T14:45:36.318Z,5.37
2017-12-10T14:48:08.409Z,6.47
2017-12-10T14:50:38.694Z,7.85
2017-12-10T14:53:12.196Z,5.53
2017-12-10T14:55:42.609Z,5.40
2017-12-10T14:58:13.329Z,8.38
2017-12-10T15:00:44.810Z,7.43
2017-12-10T15:03:17.298Z,6.03
2017-12-10T15:05:47.914Z,5.70
2017-12-10T15:08:17.076Z,6.95
2017-12-10T15:10:46.301Z,6.60
2017-12-10T15:13:15.509Z,6.97
2017-12-10T15:15:46.513Z,5.03
2017-12-10T15:18:16.026Z,7.43
2017-12-10T15:20:46.242Z,7.47
2017-12-10T15:23:16.181Z,5.50
2017-12-10T15:25:45.429Z,6.65
2017-12-10T15:28:14.645Z,4.35
2017-12-10T15:30:44.206Z,5.05
2017-12-10T15:33:13.417Z,5.62
2017-12-10T15:35:43.802Z,6.25
2017-12-10T15:38:13.024Z,4.80
2017-12-10T15:40:43.117Z,5.30
2017-12-10T15:43:12.381Z,5.72
2017-12-10T15:45:41.473Z,6.90
2017-12-10T15:48:10.732Z,4.72
2017-12-10T15:50:39.989Z,4.47
2017-12-10T15:53:10.353Z,4.80
2017-12-10T15:55:40.319Z,5.32
2017-12-10T15:58:12.806Z,6.18
2017-12-10T16:00:43.114Z,4.37
2017-12-10T16:03:13.986Z,4.28
2017-12-10T16:05:43.864Z,4.90
2017-12-10T16:08:20.886Z,4.00
2017-12-10T16:10:52.670Z,7.93
2017-12-10T16:13:23.857Z,9.65
2017-12-10T16:15:54.809Z,3.90
2017-12-10T16:18:25.975Z,3.62
2017-12-10T16:20:56.459Z,3.65
2017-12-10T16:23:27.428Z,4.43
2017-12-10T16:25:58.050Z,4.82
2017-12-10T16:28:28.424Z,3.30
2017-12-10T16:31:00.729Z,3.22
2017-12-10T16:33:32.836Z,2.47
2017-12-10T16:36:04.773Z,2.58
2017-12-10T16:38:34.120Z,3.75
2017-12-10T16:41:03.201Z,3.03
2017-12-10T16:43:35.064Z,3.60
2017-12-10T16:46:05.479Z,3.12
2017-12-10T16:48:37.236Z,3.35
2017-12-10T16:51:08.265Z,2.55
2017-12-10T16:53:38.813Z,3.95
2017-12-10T16:56:08.910Z,4.50
2017-12-10T16:58:39.487Z,3.37
2017-12-10T17:01:11.182Z,2.40
2017-12-10T17:03:44.608Z,3.47
2017-12-10T17:06:14.877Z,2.85
2017-12-10T17:08:46.370Z,3.65
2017-12-10T17:11:19.178Z,2.58
2017-12-10T17:13:49.061Z,3.78
2017-12-10T17:16:22.673Z,3.62
2017-12-10T17:18:56.572Z,3.45
2017-12-10T17:21:25.802Z,3.58
2017-12-10T17:23:54.913Z,5.78
2017-12-10T17:26:24.131Z,3.33
2017-12-10T17:28:53.358Z,5.12
2017-12-10T17:31:22.680Z,4.05
2017-12-10T17:33:55.134Z,2.83
2017-12-10T17:36:24.575Z,3.83
2017-12-10T17:38:53.721Z,3.50
2017-12-10T17:41:23.585Z,3.80
2017-12-10T17:43:52.661Z,3.65
2017-12-10T17:46:25.604Z,3.50
2017-12-10T17:49:02.813Z,20.42
2017-12-10T17:51:36.087Z,4.68
2017-12-10T17:54:09.212Z,3.78
2017-12-10T17:56:42.885Z,3.85
2017-12-10T17:59:12.786Z,5.45
2017-12-10T18:01:46.496Z,5.95
2017-12-10T18:04:15.966Z,5.00
2017-12-10T18:06:47.568Z,4.68
2017-12-10T18:09:21.243Z,7.65
2017-12-10T18:11:52.656Z,7.87
2017-12-10T18:14:24.881Z,6.80
2017-12-10T18:17:03.407Z,6.20
2017-12-10T18:19:41.103Z,9.32
2017-12-10T18:22:19.531Z,7.78
2017-12-10T18:24:50.252Z,9.10
2017-12-10T18:27:23.816Z,10.23
2017-12-10T18:29:55.499Z,9.05
2017-12-10T18:32:32.417Z,10.82
2017-12-10T18:35:04.558Z,9.93
2017-12-10T18:37:36.395Z,8.50
2017-12-10T18:40:06.804Z,6.07
2017-12-10T18:42:38.279Z,18.10
2017-12-10T18:45:11.157Z,13.82
2017-12-10T18:47:42.296Z,11.45
2017-12-10T18:50:11.595Z,11.73
2017-12-10T18:52:40.873Z,7.78
2017-12-10T18:55:10.489Z,10.50
2017-12-10T18:57:39.682Z,18.40
2017-12-10T19:00:09.018Z,12.68
2017-12-10T19:02:38.909Z,20.88
2017-12-10T19:05:08.100Z,18.17
2017-12-10T19:07:37.316Z,20.77
2017-12-10T19:10:06.493Z,9.73
2017-12-10T19:12:35.750Z,14.30
2017-12-10T19:15:05.050Z,12.55
2017-12-10T19:17:34.208Z,14.13
2017-12-10T19:20:04.319Z,15.02
2017-12-10T19:22:34.365Z,14.70
2017-12-10T19:25:04.506Z,11.95
2017-12-10T19:27:33.665Z,12.95
2017-12-10T19:30:03.030Z,13.32
2017-12-10T19:32:35.870Z,10.80
2017-12-10T19:35:08.223Z,11.55
2017-12-10T19:37:39.572Z,11.35
2017-12-10T19:40:09.459Z,15.85
2017-12-10T19:42:43.575Z,13.02
2017-12-10T19:45:13.194Z,14.10
2017-12-10T19:47:44.794Z,7.18
2017-12-10T19:50:14.044Z,18.05
2017-12-10T19:52:44.494Z,17.15
2017-12-10T19:55:13.866Z,14.57
2017-12-10T19:57:43.484Z,12.50
2017-12-10T20:00:13.723Z,12.93
2017-12-10T20:02:43.707Z,13.90
2017-12-10T20:05:13.289Z,13.65
2017-12-10T20:07:42.475Z,14.85
2017-12-10T20:10:11.741Z,14.13
2017-12-10T20:12:41.739Z,12.55
2017-12-10T20:15:12.467Z,17.60
2017-12-10T20:17:43.309Z,14.52
2017-12-10T20:20:13.838Z,15.05
2017-12-10T20:22:43.240Z,11.75
2017-12-10T20:25:13.956Z,12.95
2017-12-10T20:27:43.176Z,12.23
2017-12-10T20:30:13.334Z,12.85
2017-12-10T20:32:42.595Z,11.25
2017-12-10T20:35:13.159Z,15.00
2017-12-10T20:37:42.859Z,11.27
2017-12-10T20:40:15.629Z,8.48
2017-12-10T20:42:57.445Z,11.95
2017-12-10T20:45:27.314Z,11.12
2017-12-10T20:47:58.297Z,13.00
2017-12-10T20:50:30.723Z,10.13
2017-12-10T20:53:00.116Z,12.95
2017-12-10T20:55:30.915Z,10.05
2017-12-10T20:58:02.324Z,9.05
2017-12-10T21:00:31.797Z,8.88
2017-12-10T21:03:01.108Z,10.43
2017-12-10T21:05:30.798Z,12.68
2017-12-10T21:08:00.181Z,8.77
2017-12-10T21:10:29.512Z,12.20
2017-12-10T21:12:58.981Z,9.27
2017-12-10T21:15:28.511Z,10.07
2017-12-10T21:17:57.740Z,14.85
2017-12-10T21:20:28.176Z,12.23
2017-12-10T21:22:58.550Z,6.53
2017-12-10T21:25:27.852Z,10.00
2017-12-10T21:27:57.199Z,9.45
2017-12-10T21:30:27.263Z,14.95
2017-12-10T21:32:56.814Z,9.63
2017-12-10T21:35:31.566Z,8.05
2017-12-10T21:38:05.096Z,7.00
2017-12-10T21:40:36.211Z,9.32
2017-12-10T21:43:19.092Z,6.15
2017-12-10T21:45:48.744Z,4.20
2017-12-10T21:48:18.576Z,6.45
2017-12-10T21:50:48.084Z,6.03
2017-12-10T21:53:20.934Z,6.15
2017-12-10T21:55:52.722Z,4.18
2017-12-10T21:58:28.405Z,4.78
2017-12-10T22:01:06.551Z,7.00
2017-12-10T22:03:36.042Z,5.70
2017-12-10T22:06:05.846Z,5.65
2017-12-10T22:08:34.989Z,7.45
2017-12-10T22:11:04.100Z,6.72
2017-12-10T22:13:33.465Z,6.55
2017-12-10T22:16:03.548Z,5.55
2017-12-10T22:18:39.889Z,5.72
2017-12-10T22:21:08.996Z,8.80
2017-12-10T22:23:38.051Z,8.13
2017-12-10T22:26:08.157Z,7.55
2017-12-10T22:28:38.221Z,7.03
2017-12-10T22:31:07.953Z,5.43
2017-12-10T22:33:37.428Z,8.48
2017-12-10T22:36:06.527Z,8.38
2017-12-10T22:38:38.921Z,7.00
2017-12-10T22:41:07.989Z,8.60
2017-12-10T22:43:37.205Z,7.12
2017-12-10T22:46:06.230Z,7.68
2017-12-10T22:48:35.985Z,7.68
2017-12-10T22:51:07.205Z,5.57
2017-12-10T22:53:36.148Z,13.70
2017-12-10T22:56:05.502Z,7.47
2017-12-10T22:58:34.469Z,12.40
2017-12-10T23:01:04.239Z,9.60
2017-12-10T23:03:33.192Z,6.78
2017-12-10T23:06:02.958Z,8.98
2017-12-10T23:08:31.991Z,7.60
2017-12-10T23:11:01.704Z,7.47
2017-12-10T23:13:40.279Z,6.85
2017-12-10T23:16:22.478Z,6.65
2017-12-10T23:18:51.460Z,10.73
2017-12-10T23:21:20.545Z,8.55
2017-12-10T23:23:49.513Z,9.55
2017-12-10T23:26:18.496Z,12.37
2017-12-10T23:28:48.289Z,6.32
2017-12-10T23:31:18.161Z,9.52
2017-12-10T23:33:47.506Z,11.40
2017-12-10T23:36:17.395Z,5.68
2017-12-10T23:38:46.437Z,4.65
2017-12-10T23:41:15.368Z,9.35
2017-12-10T23:43:44.524Z,5.80
2017-12-10T23:46:13.892Z,9.07
2017-12-10T23:48:43.311Z,4.15
2017-12-10T23:51:13.049Z,4.87
2017-12-10T23:53:42.022Z,6.53
2017-12-10T23:56:11.118Z,6.57
2017-12-10T23:58:41.307Z,7.28
